Time;durP1;ratioP1;P1;durP2;ratioP2;P2;SDS_P1;SDS_P2;PMS_P1;PMS_P2;Temp;Humidity;BMP_temperature;BMP_pressure;BME280_temperature;BME280_humidity;BME280_pressure;Samples;Min_cycle;Max_cycle;Signal;HPM_P1;HPM_P2
2022/01/05 00:01:41;;;;;;;6.83;2.03;;;;;;;4.39;78.79;98945.03;5029915;28;20214;-68
2022/01/05 00:04:07;;;;;;;4.00;2.27;;;;;;;4.38;78.98;98951.22;5041662;28;20607;-69
2022/01/05 00:06:34;;;;;;;5.63;2.33;;;;;;;4.37;78.84;98951.34;5026989;28;20687;-68
2022/01/05 00:09:00;;;;;;;3.27;2.17;;;;;;;4.35;79.19;98945.31;5033091;28;20233;-68
2022/01/05 00:11:28;;;;;;;4.27;2.43;;;;;;;4.33;78.91;98942.78;5034306;28;20646;-69
2022/01/05 00:13:56;;;;;;;6.27;2.30;;;;;;;4.32;78.70;98942.88;5032675;28;20230;-69
2022/01/05 00:16:22;;;;;;;7.77;2.30;;;;;;;4.32;78.74;98951.63;5027644;28;20293;-69
2022/01/05 00:18:49;;;;;;;5.33;2.57;;;;;;;4.31;78.84;98952.56;5030229;28;20229;-70
2022/01/05 00:21:15;;;;;;;6.57;2.20;;;;;;;4.29;78.99;98962.38;5027520;28;20221;-68
2022/01/05 00:23:43;;;;;;;3.90;1.93;;;;;;;4.29;78.92;98964.19;5028623;28;20202;-68
2022/01/05 00:26:10;;;;;;;6.40;2.23;;;;;;;4.28;78.67;98962.47;5018742;28;20453;-69
2022/01/05 00:28:38;;;;;;;5.87;2.37;;;;;;;4.28;78.69;98963.31;5028593;28;20226;-69
2022/01/05 00:31:04;;;;;;;4.37;2.27;;;;;;;4.27;78.73;98950.25;5023119;28;20600;-69
2022/01/05 00:33:31;;;;;;;8.30;2.40;;;;;;;4.26;78.97;98948.56;5028919;28;20237;-67
2022/01/05 00:35:57;;;;;;;4.13;1.93;;;;;;;4.25;78.59;98945.06;5032557;28;20597;-70
2022/01/05 00:38:24;;;;;;;4.80;2.00;;;;;;;4.26;79.16;98948.56;5026776;28;20241;-69
2022/01/05 00:40:50;;;;;;;4.33;2.23;;;;;;;4.24;79.02;98951.28;5021944;28;20205;-69
2022/01/05 00:43:17;;;;;;;5.70;1.87;;;;;;;4.24;78.60;98958.34;5029216;28;20678;-69
2022/01/05 00:45:45;;;;;;;4.90;1.67;;;;;;;4.23;78.57;98962.78;5033424;28;20202;-69
2022/01/05 00:48:11;;;;;;;6.17;1.80;;;;;;;4.23;79.11;98967.19;5027962;28;20735;-68
2022/01/05 00:50:38;;;;;;;8.37;1.77;;;;;;;4.22;78.64;98958.44;5027863;28;20215;-69
2022/01/05 00:53:04;;;;;;;5.13;1.73;;;;;;;4.22;79.12;98954.97;5029098;28;20226;-70
2022/01/05 00:55:31;;;;;;;8.97;2.27;;;;;;;4.22;78.70;98960.22;5030278;28;20222;-69
2022/01/05 00:57:57;;;;;;;4.30;1.90;;;;;;;4.18;79.09;98955.16;5027459;28;20590;-69
2022/01/05 01:00:24;;;;;;;7.80;1.80;;;;;;;4.18;78.80;98957.78;5033629;28;20211;-69
2022/01/05 01:02:52;;;;;;;6.17;1.90;;;;;;;4.18;78.50;98962.22;5032410;28;20558;-69
2022/01/05 01:05:19;;;;;;;9.13;1.83;;;;;;;4.17;78.71;98965.78;5025086;28;20236;-69
2022/01/05 01:07:46;;;;;;;5.60;1.97;;;;;;;4.16;78.48;98972.00;5037341;28;20198;-68
2022/01/05 01:10:14;;;;;;;7.43;1.63;;;;;;;4.15;78.66;98971.16;5030078;28;20201;-68
2022/01/05 01:12:40;;;;;;;6.20;1.97;;;;;;;4.15;78.93;98980.84;5038686;28;20226;-69
2022/01/05 01:15:10;;;;;;;9.90;2.30;;;;;;;4.12;79.02;98973.97;5027661;28;20202;-69
2022/01/05 01:17:36;;;;;;;6.77;1.93;;;;;;;4.12;79.06;98984.50;5022717;28;20679;-68
2022/01/05 01:20:05;;;;;;;7.97;2.47;;;;;;;4.11;79.19;98985.50;5026718;28;20222;-69
2022/01/05 01:22:33;;;;;;;7.47;2.17;;;;;;;4.10;79.03;98983.78;5026523;28;20237;-69
2022/01/05 01:25:00;;;;;;;7.00;1.87;;;;;;;4.08;78.60;98974.28;5036908;28;20206;-69
2022/01/05 01:27:27;;;;;;;5.10;1.70;;;;;;;4.06;78.85;98969.13;5030921;28;20548;-69
2022/01/05 01:29:53;;;;;;;5.40;2.20;;;;;;;4.06;78.50;98971.75;5033288;28;20252;-69
2022/01/05 01:32:20;;;;;;;6.63;1.83;;;;;;;4.05;79.02;98972.69;5036423;28;20222;-69
2022/01/05 01:34:46;;;;;;;6.40;1.80;;;;;;;4.03;78.79;98971.94;5037317;28;20281;-69
2022/01/05 01:37:15;;;;;;;6.83;2.37;;;;;;;4.02;78.97;98975.50;5029695;28;20207;-69
2022/01/05 01:39:41;;;;;;;5.43;2.30;;;;;;;4.02;78.77;98972.03;5036289;28;20237;-68
2022/01/05 01:42:08;;;;;;;8.17;2.17;;;;;;;4.01;78.83;98967.72;5031983;28;20210;-68
2022/01/05 01:44:35;;;;;;;6.07;2.30;;;;;;;4.00;79.06;98968.66;5025360;28;20218;-68
2022/01/05 01:47:01;;;;;;;6.50;1.87;;;;;;;3.99;78.49;98970.44;5032701;28;20285;-68
2022/01/05 01:49:28;;;;;;;8.43;1.90;;;;;;;3.97;79.04;98972.31;5020905;28;20234;-69
2022/01/05 01:51:54;;;;;;;4.17;1.83;;;;;;;3.97;78.58;98972.31;5030970;28;20690;-69
2022/01/05 01:54:23;;;;;;;8.63;2.13;;;;;;;3.95;78.29;98971.56;5033536;28;20269;-69
2022/01/05 01:56:51;;;;;;;6.47;1.80;;;;;;;3.95;78.48;98968.09;5024795;28;20203;-68
2022/01/05 01:59:17;;;;;;;6.03;1.67;;;;;;;3.93;78.81;98973.47;5029583;28;20238;-69
2022/01/05 02:01:44;;;;;;;5.63;2.10;;;;;;;3.91;78.82;98974.50;5031493;28;20202;-69
2022/01/05 02:04:10;;;;;;;6.30;1.77;;;;;;;3.88;78.58;98980.81;5034625;28;20688;-68
2022/01/05 02:06:37;;;;;;;4.33;1.90;;;;;;;3.86;78.44;98984.47;5030398;28;20220;-70
2022/01/05 02:09:05;;;;;;;6.43;2.07;;;;;;;3.86;78.63;98979.22;5032259;28;20241;-67
2022/01/05 02:11:37;;;;;;;7.60;2.27;;;;;;;3.84;78.69;98977.50;5038210;28;20198;-70
2022/01/05 02:14:04;;;;;;;7.70;2.00;;;;;;;3.85;78.62;98973.09;5042408;28;20594;-69
2022/01/05 02:16:31;;;;;;;8.77;2.10;;;;;;;3.84;78.17;98979.31;5037236;28;20206;-68
2022/01/05 02:19:01;;;;;;;6.93;1.80;;;;;;;3.84;78.28;98971.41;5041173;28;20302;-70
2022/01/05 02:21:30;;;;;;;3.90;1.80;;;;;;;3.84;78.16;98979.31;5041250;28;20208;-67
2022/01/05 02:23:57;;;;;;;5.83;1.70;;;;;;;3.85;78.88;98986.25;5032720;28;20586;-69
2022/01/05 02:26:24;;;;;;;5.13;1.73;;;;;;;3.84;78.33;98982.78;5027546;28;20209;-69
2022/01/05 02:28:51;;;;;;;7.57;2.33;;;;;;;3.84;78.32;98977.50;5030171;28;20226;-69
2022/01/05 02:31:17;;;;;;;6.30;1.73;;;;;;;3.84;78.58;98977.50;5034961;28;20675;-69
2022/01/05 02:33:44;;;;;;;7.93;2.10;;;;;;;3.83;78.06;98977.59;5030808;28;20229;-68
2022/01/05 02:36:13;;;;;;;7.73;2.73;;;;;;;3.82;78.49;98965.38;5034984;28;20209;-68
2022/01/05 02:38:41;;;;;;;8.20;2.83;;;;;;;3.83;78.42;98980.25;4995755;28;1056372;-68
2022/01/05 02:41:10;;;;;;;4.53;2.17;;;;;;;3.81;78.12;98969.81;5038462;28;20296;-69
2022/01/05 02:43:37;;;;;;;7.87;2.50;;;;;;;3.82;78.13;98971.50;5036536;28;20197;-67
2022/01/05 02:46:06;;;;;;;10.50;2.33;;;;;;;3.81;78.25;98963.69;5023099;28;20218;-68
2022/01/05 02:48:33;;;;;;;3.40;1.60;;;;;;;3.80;78.23;98957.56;5026113;28;20241;-69
2022/01/05 02:51:00;;;;;;;8.27;1.80;;;;;;;3.79;78.33;98955.03;5028143;28;20217;-68
2022/01/05 02:53:26;;;;;;;6.83;2.27;;;;;;;3.78;79.00;98956.81;5028359;28;20226;-68
2022/01/05 02:55:54;;;;;;;7.07;2.23;;;;;;;3.78;78.99;98969.16;5032278;28;20213;-68
2022/01/05 02:58:21;;;;;;;5.63;2.50;;;;;;;3.77;78.74;98963.03;5027356;28;20230;-69
2022/01/05 03:00:48;;;;;;;5.83;2.00;;;;;;;3.76;78.45;98969.22;5010813;28;20203;-68
2022/01/05 03:03:15;;;;;;;3.97;2.13;;;;;;;3.75;78.68;98972.00;5010801;28;20219;-68
2022/01/05 03:05:42;;;;;;;9.97;2.40;;;;;;;3.73;79.07;98977.34;5016641;28;20205;-68
2022/01/05 03:08:09;;;;;;;6.43;2.30;;;;;;;3.72;78.57;98977.44;5017805;28;20230;-68
2022/01/05 03:10:35;;;;;;;5.90;1.83;;;;;;;3.70;78.09;98974.91;5017090;28;20213;-68
2022/01/05 03:13:03;;;;;;;9.10;2.20;;;;;;;3.68;78.80;98979.41;5029652;28;20226;-68
2022/01/05 03:15:30;;;;;;;5.30;1.93;;;;;;;3.67;78.38;98982.97;5022064;28;20206;-67
2022/01/05 03:17:56;;;;;;;5.13;2.10;;;;;;;3.65;78.80;98976.97;5020564;28;20210;-68
2022/01/05 03:20:23;;;;;;;8.07;2.30;;;;;;;3.63;78.34;98975.38;5017230;28;20210;-68
2022/01/05 03:22:50;;;;;;;7.77;2.00;;;;;;;3.61;78.59;98985.13;5011917;28;20210;-67
2022/01/05 03:25:17;;;;;;;8.93;2.20;;;;;;;3.60;78.96;98983.44;5026155;28;20205;-68
2022/01/05 03:27:44;;;;;;;4.77;1.87;;;;;;;3.58;78.32;98983.56;5013377;28;20210;-68
2022/01/05 03:30:15;;;;;;;6.60;1.53;;;;;;;3.57;78.93;98994.19;5023051;28;20206;-67
2022/01/05 03:33:00;;;;;;;8.77;2.37;;;;;;;3.55;78.70;98996.06;5018210;28;20695;-68
2022/01/05 03:35:28;;;;;;;8.13;2.10;;;;;;;3.52;78.34;99001.50;5024294;28;20292;-68
2022/01/05 03:37:54;;;;;;;6.67;2.13;;;;;;;3.52;78.54;99006.78;5019253;28;20676;-68
2022/01/05 03:40:23;;;;;;;7.37;1.60;;;;;;;3.51;78.29;99007.72;5074420;22;20732;-72
2022/01/05 03:42:50;;;;;;;8.47;2.00;;;;;;;3.47;78.56;98999.16;5059404;28;20208;-73
2022/01/05 03:45:18;;;;;;;11.77;2.57;;;;;;;3.46;78.98;99008.81;5068647;28;20204;-73
2022/01/05 03:47:44;;;;;;;8.60;2.30;;;;;;;3.44;78.37;99005.44;5060065;28;20202;-72
2022/01/05 03:50:11;;;;;;;6.60;2.47;;;;;;;3.46;78.86;99011.47;5058614;28;20225;-73
2022/01/05 03:52:38;;;;;;;6.83;1.90;;;;;;;3.46;78.71;99010.63;5045635;28;20205;-73
2022/01/05 03:55:06;;;;;;;8.87;1.80;;;;;;;3.44;78.96;99017.75;5049959;28;20235;-72
2022/01/05 03:57:33;;;;;;;6.67;2.17;;;;;;;3.41;78.89;99024.03;5055074;28;20212;-73
2022/01/05 04:00:00;;;;;;;8.20;2.03;;;;;;;3.41;78.18;99013.50;5050600;28;20233;-72
2022/01/05 04:02:29;;;;;;;6.87;2.40;;;;;;;3.41;77.91;99020.56;5060295;28;20220;-72
2022/01/05 04:04:55;;;;;;;8.33;2.43;;;;;;;3.40;77.69;99027.59;5053106;28;20675;-71
2022/01/05 04:07:22;;;;;;;7.90;2.30;;;;;;;3.40;78.00;99032.88;5035187;28;20217;-73
2022/01/05 04:09:48;;;;;;;4.70;1.60;;;;;;;3.40;78.31;99022.34;5056251;28;20608;-73
2022/01/05 04:12:15;;;;;;;7.63;1.83;;;;;;;3.40;77.88;99026.78;5048288;28;20212;-73
2022/01/05 04:14:42;;;;;;;4.77;1.70;;;;;;;3.41;77.49;99033.72;5048008;28;20229;-72
2022/01/05 04:17:08;;;;;;;6.97;2.23;;;;;;;3.42;77.74;99033.63;5042712;28;20683;-72
2022/01/05 04:19:36;;;;;;;7.37;2.10;;;;;;;3.41;77.91;99034.56;5052888;28;20230;-72
2022/01/05 04:22:03;;;;;;;5.57;1.70;;;;;;;3.40;77.38;99032.88;5053515;28;20217;-72
2022/01/05 04:24:30;;;;;;;6.37;2.10;;;;;;;3.41;77.19;99034.56;5058941;28;20603;-72
2022/01/05 04:26:56;;;;;;;6.90;1.83;;;;;;;3.39;77.76;99031.22;5066170;28;20758;-72
2022/01/05 04:29:23;;;;;;;5.57;2.00;;;;;;;3.40;77.53;99032.88;5064266;28;20226;-72
2022/01/05 04:31:50;;;;;;;9.13;1.97;;;;;;;3.39;76.97;99035.63;5066964;28;20208;-72
2022/01/05 04:34:18;;;;;;;4.13;1.60;;;;;;;3.38;76.79;99024.25;5063676;28;20228;-72
2022/01/05 04:36:46;;;;;;;6.53;1.97;;;;;;;3.39;77.36;99041.72;5066115;28;20610;-72
2022/01/05 04:39:13;;;;;;;10.10;2.07;;;;;;;3.38;77.14;99029.50;5054771;28;20615;-72
2022/01/05 04:41:39;;;;;;;7.80;2.07;;;;;;;3.37;76.91;99024.34;5050152;28;20690;-72
2022/01/05 04:44:06;;;;;;;4.80;1.90;;;;;;;3.36;76.73;99026.13;5048366;28;20208;-72
2022/01/05 04:46:32;;;;;;;7.23;1.73;;;;;;;3.35;77.14;99039.38;5040153;28;20199;-72
2022/01/05 04:48:59;;;;;;;7.10;1.50;;;;;;;3.33;77.08;99036.81;5052760;28;20232;-73
2022/01/05 04:51:25;;;;;;;5.37;1.50;;;;;;;3.32;76.81;99042.19;5059310;28;20201;-72
2022/01/05 04:53:53;;;;;;;6.20;2.00;;;;;;;3.32;76.57;99050.06;5050570;28;20229;-72
2022/01/05 04:56:20;;;;;;;5.10;1.90;;;;;;;3.30;76.97;99047.53;5044881;28;20206;-72
2022/01/05 04:58:46;;;;;;;7.90;1.70;;;;;;;3.28;76.42;99043.28;5035743;28;20257;-72
2022/01/05 05:01:13;;;;;;;6.83;1.70;;;;;;;3.27;76.54;99052.97;5049509;28;20210;-72
2022/01/05 05:03:40;;;;;;;8.87;1.83;;;;;;;3.24;76.03;99058.41;5046342;28;20213;-72
2022/01/05 05:06:06;;;;;;;6.97;1.63;;;;;;;3.21;76.44;99063.03;5047101;28;20209;-72
2022/01/05 05:08:33;;;;;;;4.40;1.73;;;;;;;3.17;76.01;99057.09;5065691;28;20220;-72
2022/01/05 05:11:00;;;;;;;4.70;1.73;;;;;;;3.14;76.53;99067.78;5059102;28;20258;-72
2022/01/05 05:13:27;;;;;;;5.97;2.27;;;;;;;3.13;76.17;99077.44;5057743;28;20737;-72
2022/01/05 05:15:53;;;;;;;6.53;1.80;;;;;;;3.11;76.27;99076.69;5049033;28;20206;-72
2022/01/05 05:18:20;;;;;;;7.80;2.13;;;;;;;3.10;76.27;99075.00;5043400;28;20579;-73
2022/01/05 05:20:46;;;;;;;4.93;1.97;;;;;;;3.09;76.16;99082.97;5051710;28;20216;-72
2022/01/05 05:23:13;;;;;;;5.87;1.50;;;;;;;3.08;75.77;99076.00;5054051;28;20232;-72
2022/01/05 05:25:39;;;;;;;6.17;1.40;;;;;;;3.07;75.74;99079.56;5064871;28;20205;-72
2022/01/05 05:28:07;;;;;;;3.67;1.50;;;;;;;3.04;76.24;99088.53;5044401;28;20698;-73
2022/01/05 05:30:34;;;;;;;4.37;1.23;;;;;;;3.00;75.87;99084.38;5056871;28;20217;-72
2022/01/05 05:33:00;;;;;;;9.30;1.63;;;;;;;2.99;76.16;99081.81;5046399;28;20213;-72
2022/01/05 05:35:27;;;;;;;6.80;1.37;;;;;;;2.94;75.80;99065.44;5061108;28;20221;-72
2022/01/05 05:37:54;;;;;;;6.37;1.90;;;;;;;2.92;75.29;99077.84;5054384;28;20209;-72
2022/01/05 05:40:21;;;;;;;5.97;1.97;;;;;;;2.87;75.54;99077.25;5041678;28;20601;-72
2022/01/05 05:42:48;;;;;;;6.13;1.63;;;;;;;2.85;75.32;99066.84;5042403;28;20691;-72
2022/01/05 05:45:17;;;;;;;6.10;1.57;;;;;;;2.81;75.56;99070.56;5046487;28;20229;-72
2022/01/05 05:47:43;;;;;;;7.23;1.73;;;;;;;2.79;75.53;99077.69;5049599;28;20197;-72
2022/01/05 05:50:11;;;;;;;7.07;1.60;;;;;;;2.78;75.61;99065.47;5061204;28;20221;-72
2022/01/05 05:52:37;;;;;;;7.73;1.60;;;;;;;2.76;75.88;99073.44;5059252;28;20209;-72
2022/01/05 05:55:05;;;;;;;6.67;1.77;;;;;;;2.75;74.93;99074.38;5050886;28;20225;-72
2022/01/05 05:57:32;;;;;;;7.33;2.10;;;;;;;2.74;75.71;99079.72;5046484;28;20205;-72
2022/01/05 05:59:58;;;;;;;5.23;1.50;;;;;;;2.69;74.65;99079.97;5051647;28;20233;-72
2022/01/05 06:02:26;;;;;;;3.13;1.37;;;;;;;2.66;74.99;99074.91;5050576;28;20213;-71
2022/01/05 06:04:52;;;;;;;10.07;1.83;;;;;;;2.68;75.45;99085.34;5063550;28;20659;-71
2022/01/05 06:07:19;;;;;;;10.73;2.13;;;;;;;2.58;74.94;99084.16;5058687;28;20240;-72
2022/01/05 06:09:45;;;;;;;8.07;2.73;;;;;;;2.59;75.14;99086.69;5047657;28;20230;-72
2022/01/05 06:12:12;;;;;;;7.23;2.10;;;;;;;2.57;75.21;99087.72;5042255;28;20205;-72
2022/01/05 06:14:38;;;;;;;4.40;2.03;;;;;;;2.56;74.60;99076.34;5050025;28;20228;-72
2022/01/05 06:17:05;;;;;;;6.53;1.93;;;;;;;2.56;74.40;99078.97;5059243;28;20247;-72
2022/01/05 06:19:33;;;;;;;12.70;2.67;;;;;;;2.54;74.66;99080.84;5066360;28;20222;-71
2022/01/05 06:21:59;;;;;;;10.10;2.37;;;;;;;2.53;74.35;99068.63;5037175;28;20213;-72
2022/01/05 06:24:26;;;;;;;5.70;2.07;;;;;;;2.51;74.67;99080.19;5063134;28;20206;-71
2022/01/05 06:26:53;;;;;;;6.50;2.83;;;;;;;2.51;74.74;99078.38;5051524;28;20201;-72
2022/01/05 06:29:19;;;;;;;7.83;2.53;;;;;;;2.50;74.66;99078.50;5057095;28;20233;-72
2022/01/05 06:31:46;;;;;;;7.17;1.80;;;;;;;2.48;74.36;99083.81;5062120;28;20201;-68
2022/01/05 06:34:13;;;;;;;8.17;2.57;;;;;;;2.45;74.94;99084.00;5054112;28;20229;-70
2022/01/05 06:36:41;;;;;;;7.73;1.77;;;;;;;2.43;75.04;99084.06;5052692;28;20208;-68
2022/01/05 06:39:07;;;;;;;8.43;2.20;;;;;;;2.41;74.67;99072.78;5062980;28;20240;-69
2022/01/05 06:41:34;;;;;;;6.70;1.90;;;;;;;2.37;75.27;99083.53;5052985;28;20216;-68
2022/01/05 06:44:00;;;;;;;6.93;2.27;;;;;;;2.37;74.58;99081.78;5048861;28;20213;-68
2022/01/05 06:46:27;;;;;;;9.00;3.40;;;;;;;2.34;74.92;99081.09;5044531;28;20207;-68
2022/01/05 06:48:53;;;;;;;7.17;2.17;;;;;;;2.37;74.39;99088.81;5052333;28;20232;-68
2022/01/05 06:51:20;;;;;;;8.87;2.63;;;;;;;2.37;74.83;99084.41;5051941;28;20655;-70
2022/01/05 06:53:48;;;;;;;9.50;3.10;;;;;;;2.35;75.21;99090.66;5057137;28;20205;-69
2022/01/05 06:56:15;;;;;;;12.83;3.17;;;;;;;2.35;75.01;99096.75;5037375;28;20206;-69
2022/01/05 06:58:42;;;;;;;8.23;2.40;;;;;;;2.31;75.52;99095.25;5050863;28;20229;-69
2022/01/05 07:01:08;;;;;;;8.37;2.47;;;;;;;2.28;75.39;99090.16;5046790;28;20209;-68
2022/01/05 07:03:34;;;;;;;12.43;3.17;;;;;;;2.29;75.22;99091.88;5047821;28;20583;-69
2022/01/05 07:06:01;;;;;;;13.13;2.63;;;;;;;2.27;75.05;99087.63;5043458;28;20202;-68
2022/01/05 07:08:28;;;;;;;6.43;2.53;;;;;;;2.24;75.25;99096.50;5049619;28;20678;-69
2022/01/05 07:10:55;;;;;;;7.97;2.60;;;;;;;2.25;75.66;99092.97;5055465;28;20205;-68
2022/01/05 07:13:22;;;;;;;9.83;2.63;;;;;;;2.25;76.05;99094.72;5055436;28;20671;-68
2022/01/05 07:15:49;;;;;;;7.40;3.03;;;;;;;2.26;75.66;99078.03;5055367;28;20299;-66
2022/01/05 07:18:15;;;;;;;6.50;2.37;;;;;;;2.25;75.40;99077.19;5049784;28;20210;-68
2022/01/05 07:20:42;;;;;;;7.23;2.37;;;;;;;2.24;75.72;99079.91;5049144;28;20721;-68
2022/01/05 07:23:10;;;;;;;9.10;2.90;;;;;;;2.25;75.75;99089.47;5050489;28;20212;-67
2022/01/05 07:25:36;;;;;;;14.77;3.13;;;;;;;2.24;76.08;99091.25;5037367;28;20255;-68
2022/01/05 07:28:04;;;;;;;7.67;2.40;;;;;;;2.20;76.36;99088.88;5056215;28;20204;-68
2022/01/05 07:30:31;;;;;;;8.50;2.33;;;;;;;2.20;75.94;99102.84;5051750;28;20729;-68
2022/01/05 07:32:58;;;;;;;9.13;2.60;;;;;;;2.20;75.87;99091.50;5068353;28;20215;-68
2022/01/05 07:35:24;;;;;;;9.73;2.33;;;;;;;2.19;76.10;99105.56;5057699;28;20233;-67
2022/01/05 07:37:51;;;;;;;8.60;2.73;;;;;;;2.20;76.60;99100.22;5055808;28;20667;-68
2022/01/05 07:40:17;;;;;;;7.37;2.30;;;;;;;2.19;76.08;99097.69;5053197;28;20225;-67
2022/01/05 07:42:44;;;;;;;9.60;3.10;;;;;;;2.16;76.86;99105.72;5046085;28;20209;-68
2022/01/05 07:45:12;;;;;;;13.50;3.30;;;;;;;2.18;76.69;99112.59;5047530;28;20209;-68
2022/01/05 07:47:39;;;;;;;13.27;4.17;;;;;;;2.16;76.98;99114.44;5039646;28;20600;-68
2022/01/05 07:50:11;;;;;;;10.40;3.30;;;;;;;2.16;76.62;99126.72;5042637;28;20221;-68
2022/01/05 07:52:38;;;;;;;11.57;3.20;;;;;;;2.16;76.80;99127.56;5049604;28;20662;-68
2022/01/05 07:55:07;;;;;;;8.57;2.87;;;;;;;2.17;77.03;99128.44;5052996;28;20291;-67
2022/01/05 07:57:34;;;;;;;10.50;3.00;;;;;;;2.18;76.70;99133.59;5052016;28;20212;-67
2022/01/05 08:00:00;;;;;;;12.27;3.60;;;;;;;2.20;76.72;99128.28;5053323;28;20239;-68
2022/01/05 08:02:28;;;;;;;11.40;3.27;;;;;;;2.21;77.38;99132.59;5047858;28;20197;-69
2022/01/05 08:04:55;;;;;;;9.13;2.83;;;;;;;2.22;77.17;99129.88;5046027;28;20667;-69
2022/01/05 08:07:21;;;;;;;8.90;3.57;;;;;;;2.22;76.67;99126.41;5046280;28;20206;-68
2022/01/05 08:09:48;;;;;;;10.30;3.10;;;;;;;2.28;76.57;99131.34;5054359;28;20220;-68
2022/01/05 08:12:14;;;;;;;8.73;3.10;;;;;;;2.30;76.23;99143.47;5048343;28;20687;-67
2022/01/05 08:14:41;;;;;;;11.47;4.07;;;;;;;2.30;76.92;99134.75;5041538;28;20237;-67
2022/01/05 08:17:07;;;;;;;9.90;3.40;;;;;;;2.36;76.50;99135.25;5043456;28;20205;-68
2022/01/05 08:19:35;;;;;;;8.93;4.67;;;;;;;2.39;76.57;99153.47;5042037;28;20221;-68
2022/01/05 08:22:02;;;;;;;9.83;3.77;;;;;;;2.39;76.91;99155.25;5047247;28;20577;-69
2022/01/05 08:24:28;;;;;;;9.53;3.73;;;;;;;2.41;76.23;99146.34;5045075;28;20204;-68
2022/01/05 08:26:55;;;;;;;9.10;3.50;;;;;;;2.46;76.08;99146.13;5046763;28;20217;-69
2022/01/05 08:29:23;;;;;;;10.40;4.67;;;;;;;2.50;75.91;99163.44;5049974;28;20233;-68
2022/01/05 08:31:49;;;;;;;12.00;4.80;;;;;;;2.53;76.51;99168.50;5045105;28;20206;-68
2022/01/05 08:34:19;;;;;;;13.00;4.70;;;;;;;2.56;76.53;99146.44;5043242;28;20201;-68
2022/01/05 08:36:47;;;;;;;11.17;4.80;;;;;;;2.56;76.42;99142.03;5046067;28;20709;-69
2022/01/05 08:39:14;;;;;;;9.67;4.77;;;;;;;2.57;76.16;99145.53;5047848;28;20235;-69
2022/01/05 08:41:40;;;;;;;9.70;4.73;;;;;;;2.59;75.62;99144.50;5044752;28;20214;-68
2022/01/05 08:44:07;;;;;;;9.17;4.90;;;;;;;2.64;75.34;99158.25;5047995;28;20197;-68
2022/01/05 08:46:33;;;;;;;12.00;4.23;;;;;;;2.66;76.36;99161.66;5049613;28;20205;-68
2022/01/05 08:49:00;;;;;;;9.53;5.03;;;;;;;2.69;75.62;99160.59;5045509;28;20240;-68
2022/01/05 08:51:27;;;;;;;11.90;4.47;;;;;;;2.77;76.06;99168.94;5046355;28;20659;-68
2022/01/05 08:53:55;;;;;;;10.37;4.63;;;;;;;2.80;75.06;99158.25;5048213;28;20210;-69
2022/01/05 08:56:23;;;;;;;11.87;4.63;;;;;;;2.79;75.09;99146.03;5047483;28;20265;-69
2022/01/05 08:58:50;;;;;;;10.40;4.23;;;;;;;2.86;75.17;99159.72;5040346;28;20226;-68
2022/01/05 09:01:16;;;;;;;11.03;4.27;;;;;;;2.93;75.55;99153.16;5047017;28;20212;-68
2022/01/05 09:03:43;;;;;;;13.33;4.43;;;;;;;2.98;74.85;99143.25;5040478;28;20198;-69
2022/01/05 09:06:10;;;;;;;6.50;3.10;;;;;;;3.02;74.25;99148.25;5042063;28;20274;-68
2022/01/05 09:08:37;;;;;;;12.60;4.60;;;;;;;3.07;74.35;99142.69;5042986;28;20203;-68
2022/01/05 09:11:07;;;;;;;8.57;3.93;;;;;;;3.11;74.37;99131.06;5044073;28;20213;-68
2022/01/05 09:13:33;;;;;;;10.63;4.50;;;;;;;3.17;74.06;99116.75;5040290;28;20633;-69
2022/01/05 09:16:00;;;;;;;11.13;4.93;;;;;;;3.16;73.31;99133.44;5041928;28;20230;-68
2022/01/05 09:18:27;;;;;;;10.87;4.37;;;;;;;3.24;73.84;99134.69;5047062;28;20201;-68
2022/01/05 09:20:54;;;;;;;9.27;4.23;;;;;;;3.32;73.42;99137.75;5045071;28;20213;-68
2022/01/05 09:23:20;;;;;;;9.93;4.73;;;;;;;3.34;73.72;99137.66;5045671;28;20205;-68
2022/01/05 09:25:47;;;;;;;8.70;4.17;;;;;;;3.38;73.82;99134.78;5047751;28;20659;-68
2022/01/05 09:28:15;;;;;;;8.83;4.70;;;;;;;3.45;72.76;99122.09;5048246;28;20197;-68
2022/01/05 09:30:45;;;;;;;8.03;3.67;;;;;;;3.48;72.81;99130.66;5044843;28;20255;-69
2022/01/05 09:33:12;;;;;;;8.00;4.33;;;;;;;3.52;73.10;99136.59;5043417;28;20233;-70
2022/01/05 09:35:39;;;;;;;9.93;4.00;;;;;;;3.49;72.40;99110.44;5047634;28;20222;-69
2022/01/05 09:38:22;;;;;;;6.93;4.00;;;;;;;3.45;73.00;99115.03;5043262;28;20698;-68
2022/01/05 09:43:51;;;;;;;10.80;4.57;;;;;;;3.37;72.06;99126.97;5021516;28;20210;-67
2022/01/05 09:46:30;;;;;;;9.70;3.60;;;;;;;3.37;72.45;99127.81;5024960;28;20711;-69
2022/01/05 09:49:05;;;;;;;7.47;3.93;;;;;;;3.40;72.72;99134.69;5026212;28;20213;-69
2022/01/05 09:51:34;;;;;;;9.30;3.27;;;;;;;3.43;72.77;99134.47;5027009;28;20590;-67
2022/01/05 09:54:02;;;;;;;10.33;3.70;;;;;;;3.46;73.09;99134.31;5026235;28;20212;-68
2022/01/05 09:56:31;;;;;;;10.10;4.77;;;;;;;3.48;72.24;99128.03;5025837;28;20229;-68
2022/01/05 09:59:02;;;;;;;9.77;4.70;;;;;;;3.42;72.45;99133.63;5025211;28;20237;-68
2022/01/05 10:01:30;;;;;;;7.43;4.33;;;;;;;3.41;73.49;99121.41;5025385;28;20237;-69
2022/01/05 10:03:58;;;;;;;7.83;4.60;;;;;;;3.38;72.69;99123.41;5023408;28;20298;-70
2022/01/05 10:06:24;;;;;;;9.60;4.40;;;;;;;3.43;73.04;99130.06;5029979;28;20332;-69
2022/01/05 10:08:51;;;;;;;7.80;4.00;;;;;;;3.48;72.83;99132.44;5023908;28;20210;-69
2022/01/05 10:11:20;;;;;;;9.60;4.07;;;;;;;3.48;73.76;99124.53;5029089;28;20985;-71
2022/01/05 10:13:46;;;;;;;8.90;3.90;;;;;;;3.52;73.00;99110.28;5022983;28;20300;-68
2022/01/05 10:16:15;;;;;;;9.40;4.47;;;;;;;3.54;72.90;99120.72;5024839;28;20617;-68
2022/01/05 10:18:43;;;;;;;11.33;3.97;;;;;;;3.57;74.05;99121.38;5025324;28;20803;-68
2022/01/05 10:21:12;;;;;;;6.90;3.50;;;;;;;3.61;73.70;99117.59;5026556;28;20734;-69
2022/01/05 10:23:41;;;;;;;9.90;4.47;;;;;;;3.65;73.38;99124.38;5024958;28;20207;-68
2022/01/05 10:26:29;;;;;;;6.97;4.13;;;;;;;3.72;73.20;99117.00;5026757;28;20663;-68
2022/01/05 10:28:57;;;;;;;5.53;3.87;;;;;;;3.71;73.78;99129.31;5024641;28;20206;-68
2022/01/05 10:31:27;;;;;;;10.30;4.27;;;;;;;3.67;73.40;99135.69;5026592;28;20233;-68
2022/01/05 10:33:54;;;;;;;10.63;4.67;;;;;;;3.66;73.57;99159.47;5026400;28;20581;-69
2022/01/05 10:36:21;;;;;;;4.70;3.23;;;;;;;3.60;74.90;99155.41;5024377;28;20233;-68
2022/01/05 10:38:55;;;;;;;7.23;3.33;;;;;;;3.56;75.71;99158.31;5022716;28;20202;-68
2022/01/05 10:41:24;;;;;;;6.53;3.57;;;;;;;3.47;75.68;99144.75;5027671;28;20236;-69
2022/01/05 10:44:17;;;;;;;6.40;3.63;;;;;;;3.40;75.84;99139.94;5026044;28;20202;-69
2022/01/05 10:46:48;;;;;;;4.23;2.83;;;;;;;3.34;75.81;99132.41;5025531;28;20200;-69
2022/01/05 10:49:29;;;;;;;5.47;4.20;;;;;;;3.20;76.89;99130.56;5023896;28;20206;-69
2022/01/05 10:51:58;;;;;;;4.17;3.17;;;;;;;3.08;77.56;99129.47;5023066;28;20313;-69
2022/01/05 10:54:26;;;;;;;3.57;2.83;;;;;;;3.06;77.51;99133.13;5026830;28;20209;-69
2022/01/05 10:56:53;;;;;;;4.17;2.70;;;;;;;3.00;78.77;99134.34;5026888;28;20221;-69
2022/01/05 10:59:28;;;;;;;3.43;2.47;;;;;;;2.86;81.04;99122.91;5029781;28;20206;-69
2022/01/05 11:01:56;;;;;;;5.23;2.77;;;;;;;2.83;80.47;99130.94;5029047;28;20225;-69
2022/01/05 11:04:24;;;;;;;4.13;2.50;;;;;;;2.87;80.94;99124.56;5027845;28;20202;-69
2022/01/05 11:06:58;;;;;;;3.47;2.90;;;;;;;2.84;81.42;99116.88;5028094;28;20251;-69
2022/01/05 11:09:25;;;;;;;4.23;2.80;;;;;;;2.80;81.65;99113.56;5012446;28;20241;-69
2022/01/05 11:11:52;;;;;;;4.07;3.17;;;;;;;2.77;82.20;99114.59;5026994;28;20229;-69
2022/01/05 11:14:27;;;;;;;5.40;3.40;;;;;;;2.74;82.85;99124.41;5023751;28;20305;-69
2022/01/05 11:16:56;;;;;;;3.90;2.90;;;;;;;2.75;82.20;99115.59;5029334;28;20271;-69
2022/01/05 11:19:24;;;;;;;3.83;2.90;;;;;;;2.79;82.67;99117.13;5028801;28;20205;-69
2022/01/05 11:22:00;;;;;;;3.27;2.97;;;;;;;2.76;82.39;99135.69;5026219;28;20222;-69
2022/01/05 11:24:29;;;;;;;3.20;2.80;;;;;;;2.76;82.83;99135.69;5025173;28;20213;-69
2022/01/05 11:26:56;;;;;;;3.50;3.20;;;;;;;2.71;83.33;99122.81;5020530;28;20212;-69
2022/01/05 11:29:23;;;;;;;4.33;3.03;;;;;;;2.67;83.38;99131.81;5022827;28;20585;-70
2022/01/05 11:31:50;;;;;;;9.73;8.77;;;;;;;2.64;83.47;99129.34;5021126;28;20731;-70
2022/01/05 11:34:18;;;;;;;4.43;4.03;;;;;;;2.60;84.00;99126.97;5024240;28;20207;-69
2022/01/05 11:36:44;;;;;;;8.20;6.73;;;;;;;2.58;84.28;99137.56;5023422;28;20218;-69
2022/01/05 11:39:11;;;;;;;6.93;5.13;;;;;;;2.59;84.16;99151.53;5020019;28;20718;-70
2022/01/05 11:41:45;;;;;;;5.20;4.63;;;;;;;2.54;84.06;99135.16;5023195;28;20226;-70
2022/01/05 11:44:12;;;;;;;4.80;4.30;;;;;;;2.47;84.08;99139.94;5022219;28;20198;-69
2022/01/05 11:46:42;;;;;;;4.17;3.57;;;;;;;2.43;84.48;99133.16;5026041;28;20199;-70